sensor_id;sensor_type;location;lat;lon;timestamp;P1;durP1;ratioP1;P2;durP2;ratioP2
5939;SDS011;2995;-31.998;115.906;2022-09-16T00:02:02;2.80;;;1.50;;
5939;SDS011;2995;-31.998;115.906;2022-09-16T00:04:34;4.70;;;1.43;;
5939;SDS011;2995;-31.998;115.906;2022-09-16T00:07:05;5.37;;;1.70;;
5939;SDS011;2995;-31.998;115.906;2022-09-16T00:09:36;2.40;;;1.20;;
5939;SDS011;2995;-31.998;115.906;2022-09-16T00:12:10;5.03;;;1.37;;
5939;SDS011;2995;-31.998;115.906;2022-09-16T00:14:41;3.40;;;1.40;;
5939;SDS011;2995;-31.998;115.906;2022-09-16T00:17:12;3.73;;;1.27;;
5939;SDS011;2995;-31.998;115.906;2022-09-16T00:19:44;2.40;;;1.10;;
5939;SDS011;2995;-31.998;115.906;2022-09-16T00:22:15;5.47;;;1.20;;
5939;SDS011;2995;-31.998;115.906;2022-09-16T00:24:47;2.93;;;1.10;;
5939;SDS011;2995;-31.998;115.906;2022-09-16T00:27:20;5.03;;;1.00;;
5939;SDS011;2995;-31.998;115.906;2022-09-16T00:29:52;6.63;;;1.30;;
5939;SDS011;2995;-31.998;115.906;2022-09-16T00:32:23;7.97;;;1.33;;
5939;SDS011;2995;-31.998;115.906;2022-09-16T00:34:54;3.50;;;1.73;;
5939;SDS011;2995;-31.998;115.906;2022-09-16T00:37:25;5.87;;;1.27;;
5939;SDS011;2995;-31.998;115.906;2022-09-16T00:39:57;2.40;;;1.53;;
5939;SDS011;2995;-31.998;115.906;2022-09-16T00:42:30;3.47;;;1.57;;
5939;SDS011;2995;-31.998;115.906;2022-09-16T00:45:12;3.70;;;1.30;;
5939;SDS011;2995;-31.998;115.906;2022-09-16T00:47:46;2.07;;;1.60;;
5939;SDS011;2995;-31.998;115.906;2022-09-16T00:50:20;4.93;;;1.20;;
5939;SDS011;2995;-31.998;115.906;2022-09-16T00:52:57;2.10;;;1.30;;
5939;SDS011;2995;-31.998;115.906;2022-09-16T00:55:31;2.60;;;1.20;;
5939;SDS011;2995;-31.998;115.906;2022-09-16T00:58:08;2.97;;;1.50;;
5939;SDS011;2995;-31.998;115.906;2022-09-16T01:00:42;3.40;;;1.07;;
5939;SDS011;2995;-31.998;115.906;2022-09-16T01:03:13;4.53;;;1.20;;
5939;SDS011;2995;-31.998;115.906;2022-09-16T01:05:45;1.97;;;1.10;;
5939;SDS011;2995;-31.998;115.906;2022-09-16T01:08:17;1.73;;;1.30;;
5939;SDS011;2995;-31.998;115.906;2022-09-16T01:10:48;2.77;;;0.90;;
5939;SDS011;2995;-31.998;115.906;2022-09-16T01:13:21;4.40;;;1.00;;
5939;SDS011;2995;-31.998;115.906;2022-09-16T01:15:54;2.10;;;0.90;;
5939;SDS011;2995;-31.998;115.906;2022-09-16T01:18:30;2.30;;;1.37;;
5939;SDS011;2995;-31.998;115.906;2022-09-16T01:21:10;2.93;;;1.00;;
5939;SDS011;2995;-31.998;115.906;2022-09-16T01:23:56;4.00;;;1.20;;
5939;SDS011;2995;-31.998;115.906;2022-09-16T01:30:15;3.03;;;0.90;;
5939;SDS011;2995;-31.998;115.906;2022-09-16T01:32:56;3.30;;;1.10;;
5939;SDS011;2995;-31.998;115.906;2022-09-16T01:35:40;2.90;;;0.93;;
5939;SDS011;2995;-31.998;115.906;2022-09-16T01:38:25;1.63;;;0.87;;
5939;SDS011;2995;-31.998;115.906;2022-09-16T01:41:12;2.20;;;1.00;;
5939;SDS011;2995;-31.998;115.906;2022-09-16T01:43:54;2.87;;;0.83;;
5939;SDS011;2995;-31.998;115.906;2022-09-16T01:46:31;1.50;;;0.90;;
5939;SDS011;2995;-31.998;115.906;2022-09-16T01:49:14;1.57;;;0.80;;
5939;SDS011;2995;-31.998;115.906;2022-09-16T01:51:51;2.20;;;0.60;;
5939;SDS011;2995;-31.998;115.906;2022-09-16T01:54:28;1.70;;;0.80;;
5939;SDS011;2995;-31.998;115.906;2022-09-16T01:57:06;1.10;;;0.70;;
5939;SDS011;2995;-31.998;115.906;2022-09-16T01:59:42;1.13;;;0.70;;
5939;SDS011;2995;-31.998;115.906;2022-09-16T02:02:17;2.17;;;1.00;;
5939;SDS011;2995;-31.998;115.906;2022-09-16T02:04:55;3.47;;;0.90;;
5939;SDS011;2995;-31.998;115.906;2022-09-16T02:07:30;3.07;;;0.80;;
5939;SDS011;2995;-31.998;115.906;2022-09-16T02:10:04;1.10;;;0.80;;
5939;SDS011;2995;-31.998;115.906;2022-09-16T02:12:42;1.20;;;0.70;;
5939;SDS011;2995;-31.998;115.906;2022-09-16T02:15:15;1.27;;;0.57;;
5939;SDS011;2995;-31.998;115.906;2022-09-16T02:17:50;2.43;;;0.67;;
5939;SDS011;2995;-31.998;115.906;2022-09-16T02:20:28;2.30;;;0.73;;
5939;SDS011;2995;-31.998;115.906;2022-09-16T02:23:01;2.17;;;0.93;;
5939;SDS011;2995;-31.998;115.906;2022-09-16T02:25:37;1.93;;;0.93;;
5939;SDS011;2995;-31.998;115.906;2022-09-16T02:28:10;2.03;;;0.63;;
5939;SDS011;2995;-31.998;115.906;2022-09-16T02:30:48;1.30;;;0.70;;
5939;SDS011;2995;-31.998;115.906;2022-09-16T02:33:23;1.20;;;0.60;;
5939;SDS011;2995;-31.998;115.906;2022-09-16T02:36:02;1.23;;;0.60;;
5939;SDS011;2995;-31.998;115.906;2022-09-16T02:38:35;1.20;;;0.80;;
5939;SDS011;2995;-31.998;115.906;2022-09-16T02:41:09;0.97;;;0.60;;
5939;SDS011;2995;-31.998;115.906;2022-09-16T02:43:42;1.23;;;0.70;;
5939;SDS011;2995;-31.998;115.906;2022-09-16T02:46:17;4.10;;;1.40;;
5939;SDS011;2995;-31.998;115.906;2022-09-16T02:48:54;3.40;;;0.70;;
5939;SDS011;2995;-31.998;115.906;2022-09-16T02:51:35;1.00;;;0.70;;
5939;SDS011;2995;-31.998;115.906;2022-09-16T02:54:15;1.40;;;0.77;;
5939;SDS011;2995;-31.998;115.906;2022-09-16T02:56:52;3.70;;;0.73;;
5939;SDS011;2995;-31.998;115.906;2022-09-16T02:59:24;1.67;;;0.70;;
5939;SDS011;2995;-31.998;115.906;2022-09-16T03:01:57;1.30;;;0.80;;
5939;SDS011;2995;-31.998;115.906;2022-09-16T03:04:28;3.37;;;1.00;;
5939;SDS011;2995;-31.998;115.906;2022-09-16T03:07:02;2.80;;;0.87;;
5939;SDS011;2995;-31.998;115.906;2022-09-16T03:09:34;1.23;;;0.90;;
5939;SDS011;2995;-31.998;115.906;2022-09-16T03:12:14;1.97;;;0.80;;
5939;SDS011;2995;-31.998;115.906;2022-09-16T03:18:21;2.40;;;1.00;;
5939;SDS011;2995;-31.998;115.906;2022-09-16T03:21:20;1.13;;;0.80;;
5939;SDS011;2995;-31.998;115.906;2022-09-16T03:24:01;2.03;;;1.10;;
5939;SDS011;2995;-31.998;115.906;2022-09-16T03:26:38;1.23;;;0.90;;
5939;SDS011;2995;-31.998;115.906;2022-09-16T03:29:17;1.83;;;0.80;;
5939;SDS011;2995;-31.998;115.906;2022-09-16T03:31:57;2.40;;;0.80;;
5939;SDS011;2995;-31.998;115.906;2022-09-16T03:34:32;1.33;;;0.80;;
5939;SDS011;2995;-31.998;115.906;2022-09-16T03:37:06;1.07;;;0.80;;
5939;SDS011;2995;-31.998;115.906;2022-09-16T03:39:42;3.13;;;0.80;;
5939;SDS011;2995;-31.998;115.906;2022-09-16T03:42:19;2.10;;;0.70;;
5939;SDS011;2995;-31.998;115.906;2022-09-16T03:44:51;1.80;;;0.80;;
5939;SDS011;2995;-31.998;115.906;2022-09-16T03:47:22;2.40;;;0.70;;
5939;SDS011;2995;-31.998;115.906;2022-09-16T03:49:53;2.83;;;1.10;;
5939;SDS011;2995;-31.998;115.906;2022-09-16T03:52:25;3.53;;;1.03;;
5939;SDS011;2995;-31.998;115.906;2022-09-16T03:54:58;1.20;;;0.70;;
5939;SDS011;2995;-31.998;115.906;2022-09-16T03:57:29;2.80;;;0.87;;
5939;SDS011;2995;-31.998;115.906;2022-09-16T04:00:01;2.43;;;0.70;;
5939;SDS011;2995;-31.998;115.906;2022-09-16T04:02:32;1.90;;;1.07;;
5939;SDS011;2995;-31.998;115.906;2022-09-16T04:05:04;1.20;;;0.70;;
5939;SDS011;2995;-31.998;115.906;2022-09-16T04:07:36;1.43;;;0.70;;
5939;SDS011;2995;-31.998;115.906;2022-09-16T04:10:09;1.30;;;0.70;;
5939;SDS011;2995;-31.998;115.906;2022-09-16T04:12:40;1.67;;;0.80;;
5939;SDS011;2995;-31.998;115.906;2022-09-16T04:15:12;2.63;;;0.77;;
5939;SDS011;2995;-31.998;115.906;2022-09-16T04:17:43;1.90;;;0.80;;
5939;SDS011;2995;-31.998;115.906;2022-09-16T04:20:17;1.33;;;0.70;;
5939;SDS011;2995;-31.998;115.906;2022-09-16T04:22:49;1.03;;;0.80;;
5939;SDS011;2995;-31.998;115.906;2022-09-16T04:25:22;3.70;;;0.90;;
5939;SDS011;2995;-31.998;115.906;2022-09-16T04:27:53;4.83;;;0.90;;
5939;SDS011;2995;-31.998;115.906;2022-09-16T04:30:24;2.13;;;0.80;;
5939;SDS011;2995;-31.998;115.906;2022-09-16T04:32:56;1.20;;;1.00;;
5939;SDS011;2995;-31.998;115.906;2022-09-16T04:35:28;1.00;;;0.73;;
5939;SDS011;2995;-31.998;115.906;2022-09-16T04:37:59;3.80;;;1.13;;
5939;SDS011;2995;-31.998;115.906;2022-09-16T04:40:32;1.23;;;1.00;;
5939;SDS011;2995;-31.998;115.906;2022-09-16T04:43:04;1.97;;;1.03;;
5939;SDS011;2995;-31.998;115.906;2022-09-16T04:45:35;1.37;;;1.00;;
5939;SDS011;2995;-31.998;115.906;2022-09-16T04:48:06;3.37;;;0.90;;
5939;SDS011;2995;-31.998;115.906;2022-09-16T04:50:37;6.50;;;1.20;;
5939;SDS011;2995;-31.998;115.906;2022-09-16T04:53:09;4.03;;;1.23;;
5939;SDS011;2995;-31.998;115.906;2022-09-16T04:55:42;2.70;;;1.17;;
5939;SDS011;2995;-31.998;115.906;2022-09-16T04:58:13;3.03;;;1.30;;
5939;SDS011;2995;-31.998;115.906;2022-09-16T05:00:44;2.90;;;1.10;;
5939;SDS011;2995;-31.998;115.906;2022-09-16T05:03:15;2.40;;;1.20;;
5939;SDS011;2995;-31.998;115.906;2022-09-16T05:05:47;2.23;;;1.07;;
5939;SDS011;2995;-31.998;115.906;2022-09-16T05:08:18;1.97;;;1.17;;
5939;SDS011;2995;-31.998;115.906;2022-09-16T05:10:51;3.50;;;1.23;;
5939;SDS011;2995;-31.998;115.906;2022-09-16T05:13:22;4.43;;;1.30;;
5939;SDS011;2995;-31.998;115.906;2022-09-16T05:15:53;1.43;;;1.10;;
5939;SDS011;2995;-31.998;115.906;2022-09-16T05:18:24;3.67;;;1.10;;
5939;SDS011;2995;-31.998;115.906;2022-09-16T05:20:57;2.80;;;0.90;;
5939;SDS011;2995;-31.998;115.906;2022-09-16T05:23:29;2.30;;;0.70;;
5939;SDS011;2995;-31.998;115.906;2022-09-16T05:26:06;2.97;;;0.93;;
5939;SDS011;2995;-31.998;115.906;2022-09-16T05:28:38;1.70;;;0.70;;
5939;SDS011;2995;-31.998;115.906;2022-09-16T05:31:10;1.37;;;0.60;;
5939;SDS011;2995;-31.998;115.906;2022-09-16T05:33:43;1.87;;;0.80;;
5939;SDS011;2995;-31.998;115.906;2022-09-16T05:36:15;1.47;;;0.80;;
5939;SDS011;2995;-31.998;115.906;2022-09-16T05:38:46;1.43;;;0.80;;
5939;SDS011;2995;-31.998;115.906;2022-09-16T05:41:20;2.07;;;1.17;;
5939;SDS011;2995;-31.998;115.906;2022-09-16T05:43:51;1.77;;;0.90;;
5939;SDS011;2995;-31.998;115.906;2022-09-16T05:46:23;4.00;;;0.87;;
5939;SDS011;2995;-31.998;115.906;2022-09-16T05:48:54;1.83;;;0.70;;
5939;SDS011;2995;-31.998;115.906;2022-09-16T05:51:26;1.30;;;0.70;;
5939;SDS011;2995;-31.998;115.906;2022-09-16T05:53:57;1.97;;;0.80;;
5939;SDS011;2995;-31.998;115.906;2022-09-16T05:56:31;1.73;;;0.80;;
5939;SDS011;2995;-31.998;115.906;2022-09-16T05:59:02;1.07;;;0.70;;
5939;SDS011;2995;-31.998;115.906;2022-09-16T06:01:34;2.10;;;0.80;;
5939;SDS011;2995;-31.998;115.906;2022-09-16T06:04:06;2.30;;;0.80;;
5939;SDS011;2995;-31.998;115.906;2022-09-16T06:06:39;1.53;;;0.70;;
5939;SDS011;2995;-31.998;115.906;2022-09-16T06:09:12;1.80;;;0.60;;
5939;SDS011;2995;-31.998;115.906;2022-09-16T06:11:46;1.23;;;0.60;;
5939;SDS011;2995;-31.998;115.906;2022-09-16T06:14:18;2.10;;;0.70;;
5939;SDS011;2995;-31.998;115.906;2022-09-16T06:16:50;0.90;;;0.60;;
5939;SDS011;2995;-31.998;115.906;2022-09-16T06:19:21;2.17;;;0.80;;
5939;SDS011;2995;-31.998;115.906;2022-09-16T06:21:52;1.00;;;0.60;;
5939;SDS011;2995;-31.998;115.906;2022-09-16T06:24:24;1.10;;;0.60;;
5939;SDS011;2995;-31.998;115.906;2022-09-16T06:26:57;0.90;;;0.60;;
5939;SDS011;2995;-31.998;115.906;2022-09-16T06:29:28;1.50;;;0.60;;
5939;SDS011;2995;-31.998;115.906;2022-09-16T06:31:59;1.77;;;0.73;;
5939;SDS011;2995;-31.998;115.906;2022-09-16T06:34:30;7.97;;;0.70;;
5939;SDS011;2995;-31.998;115.906;2022-09-16T06:37:02;1.03;;;0.60;;
5939;SDS011;2995;-31.998;115.906;2022-09-16T06:39:33;1.77;;;0.80;;
5939;SDS011;2995;-31.998;115.906;2022-09-16T06:42:08;1.97;;;0.70;;
5939;SDS011;2995;-31.998;115.906;2022-09-16T06:44:39;1.57;;;0.70;;
5939;SDS011;2995;-31.998;115.906;2022-09-16T06:47:10;2.07;;;0.80;;
5939;SDS011;2995;-31.998;115.906;2022-09-16T06:49:41;2.30;;;0.83;;
5939;SDS011;2995;-31.998;115.906;2022-09-16T06:52:12;4.53;;;0.93;;
5939;SDS011;2995;-31.998;115.906;2022-09-16T06:54:44;3.33;;;0.80;;
5939;SDS011;2995;-31.998;115.906;2022-09-16T06:57:21;3.83;;;1.00;;
5939;SDS011;2995;-31.998;115.906;2022-09-16T06:59:53;1.30;;;0.70;;
5939;SDS011;2995;-31.998;115.906;2022-09-16T07:02:24;2.03;;;0.63;;
5939;SDS011;2995;-31.998;115.906;2022-09-16T07:04:56;1.30;;;0.70;;
5939;SDS011;2995;-31.998;115.906;2022-09-16T07:07:28;1.73;;;0.70;;
5939;SDS011;2995;-31.998;115.906;2022-09-16T07:10:01;1.87;;;0.60;;
5939;SDS011;2995;-31.998;115.906;2022-09-16T07:12:35;0.97;;;0.63;;
5939;SDS011;2995;-31.998;115.906;2022-09-16T07:15:07;1.13;;;0.80;;
5939;SDS011;2995;-31.998;115.906;2022-09-16T07:17:38;1.30;;;0.80;;
5939;SDS011;2995;-31.998;115.906;2022-09-16T07:20:10;3.37;;;0.70;;
5939;SDS011;2995;-31.998;115.906;2022-09-16T07:22:41;1.17;;;0.70;;
5939;SDS011;2995;-31.998;115.906;2022-09-16T07:25:16;2.73;;;1.00;;
5939;SDS011;2995;-31.998;115.906;2022-09-16T07:27:49;1.67;;;0.70;;
5939;SDS011;2995;-31.998;115.906;2022-09-16T07:30:20;1.87;;;0.80;;
5939;SDS011;2995;-31.998;115.906;2022-09-16T07:32:53;1.23;;;0.60;;
5939;SDS011;2995;-31.998;115.906;2022-09-16T07:35:25;0.70;;;0.50;;
5939;SDS011;2995;-31.998;115.906;2022-09-16T07:37:56;1.43;;;0.60;;
5939;SDS011;2995;-31.998;115.906;2022-09-16T07:40:30;1.03;;;0.50;;
5939;SDS011;2995;-31.998;115.906;2022-09-16T07:43:04;0.70;;;0.50;;
5939;SDS011;2995;-31.998;115.906;2022-09-16T07:45:35;1.00;;;0.60;;
5939;SDS011;2995;-31.998;115.906;2022-09-16T07:48:06;1.10;;;0.60;;
5939;SDS011;2995;-31.998;115.906;2022-09-16T07:50:38;0.90;;;0.60;;
5939;SDS011;2995;-31.998;115.906;2022-09-16T07:53:09;0.90;;;0.60;;
5939;SDS011;2995;-31.998;115.906;2022-09-16T07:55:41;1.13;;;0.60;;
5939;SDS011;2995;-31.998;115.906;2022-09-16T07:58:14;1.90;;;0.80;;
5939;SDS011;2995;-31.998;115.906;2022-09-16T08:00:45;2.17;;;0.60;;
5939;SDS011;2995;-31.998;115.906;2022-09-16T08:03:18;0.90;;;0.50;;
5939;SDS011;2995;-31.998;115.906;2022-09-16T08:05:49;3.57;;;0.60;;
5939;SDS011;2995;-31.998;115.906;2022-09-16T08:08:20;1.20;;;0.60;;
5939;SDS011;2995;-31.998;115.906;2022-09-16T08:10:55;0.70;;;0.50;;
5939;SDS011;2995;-31.998;115.906;2022-09-16T08:13:30;1.83;;;0.73;;
5939;SDS011;2995;-31.998;115.906;2022-09-16T08:16:02;1.60;;;0.80;;
5939;SDS011;2995;-31.998;115.906;2022-09-16T08:18:35;1.63;;;0.70;;
5939;SDS011;2995;-31.998;115.906;2022-09-16T08:21:11;1.20;;;0.77;;
5939;SDS011;2995;-31.998;115.906;2022-09-16T08:23:44;1.20;;;0.73;;
5939;SDS011;2995;-31.998;115.906;2022-09-16T08:26:15;1.00;;;0.60;;
5939;SDS011;2995;-31.998;115.906;2022-09-16T08:28:49;1.37;;;0.80;;
5939;SDS011;2995;-31.998;115.906;2022-09-16T08:31:21;1.10;;;0.70;;
5939;SDS011;2995;-31.998;115.906;2022-09-16T08:33:52;1.17;;;0.80;;
5939;SDS011;2995;-31.998;115.906;2022-09-16T08:36:24;2.40;;;0.80;;
5939;SDS011;2995;-31.998;115.906;2022-09-16T08:38:55;1.57;;;0.80;;
5939;SDS011;2995;-31.998;115.906;2022-09-16T08:41:40;2.50;;;0.93;;
5939;SDS011;2995;-31.998;115.906;2022-09-16T08:44:26;1.70;;;0.80;;
5939;SDS011;2995;-31.998;115.906;2022-09-16T08:47:03;5.50;;;0.90;;
5939;SDS011;2995;-31.998;115.906;2022-09-16T08:49:41;1.10;;;0.70;;
5939;SDS011;2995;-31.998;115.906;2022-09-16T08:52:14;1.40;;;0.70;;
5939;SDS011;2995;-31.998;115.906;2022-09-16T08:54:55;1.00;;;0.60;;
5939;SDS011;2995;-31.998;115.906;2022-09-16T08:57:29;4.77;;;0.67;;
5939;SDS011;2995;-31.998;115.906;2022-09-16T09:00:11;1.40;;;0.60;;
5939;SDS011;2995;-31.998;115.906;2022-09-16T09:02:49;1.20;;;0.70;;
5939;SDS011;2995;-31.998;115.906;2022-09-16T09:05:26;2.33;;;0.80;;
5939;SDS011;2995;-31.998;115.906;2022-09-16T09:08:09;2.70;;;1.00;;
5939;SDS011;2995;-31.998;115.906;2022-09-16T09:10:48;1.23;;;0.70;;
5939;SDS011;2995;-31.998;115.906;2022-09-16T09:16:24;2.57;;;1.10;;
5939;SDS011;2995;-31.998;115.906;2022-09-16T09:19:12;1.33;;;0.93;;
5939;SDS011;2995;-31.998;115.906;2022-09-16T09:21:53;5.80;;;1.30;;
5939;SDS011;2995;-31.998;115.906;2022-09-16T09:24:39;3.03;;;1.10;;
5939;SDS011;2995;-31.998;115.906;2022-09-16T09:27:30;1.57;;;0.87;;
5939;SDS011;2995;-31.998;115.906;2022-09-16T09:30:09;3.53;;;1.40;;
5939;SDS011;2995;-31.998;115.906;2022-09-16T09:33:00;2.53;;;1.30;;
5939;SDS011;2995;-31.998;115.906;2022-09-16T09:35:43;2.63;;;1.30;;
5939;SDS011;2995;-31.998;115.906;2022-09-16T09:38:45;2.70;;;1.07;;
5939;SDS011;2995;-31.998;115.906;2022-09-16T09:41:28;3.53;;;1.53;;
5939;SDS011;2995;-31.998;115.906;2022-09-16T09:44:06;2.27;;;0.70;;
5939;SDS011;2995;-31.998;115.906;2022-09-16T09:46:53;1.20;;;0.90;;
5939;SDS011;2995;-31.998;115.906;2022-09-16T09:49:34;1.90;;;1.03;;
5939;SDS011;2995;-31.998;115.906;2022-09-16T09:52:11;2.43;;;1.40;;
5939;SDS011;2995;-31.998;115.906;2022-09-16T09:54:47;7.17;;;1.30;;
5939;SDS011;2995;-31.998;115.906;2022-09-16T09:57:21;1.53;;;1.20;;
5939;SDS011;2995;-31.998;115.906;2022-09-16T09:59:59;5.40;;;3.90;;
5939;SDS011;2995;-31.998;115.906;2022-09-16T10:02:34;2.10;;;1.90;;
5939;SDS011;2995;-31.998;115.906;2022-09-16T10:05:13;4.20;;;2.10;;
5939;SDS011;2995;-31.998;115.906;2022-09-16T10:07:51;2.17;;;1.43;;
5939;SDS011;2995;-31.998;115.906;2022-09-16T10:10:24;4.33;;;2.70;;
5939;SDS011;2995;-31.998;115.906;2022-09-16T10:13:06;3.00;;;1.70;;
5939;SDS011;2995;-31.998;115.906;2022-09-16T10:15:39;7.80;;;1.37;;
5939;SDS011;2995;-31.998;115.906;2022-09-16T10:18:11;2.70;;;1.20;;
5939;SDS011;2995;-31.998;115.906;2022-09-16T10:20:56;3.33;;;1.30;;
5939;SDS011;2995;-31.998;115.906;2022-09-16T10:23:30;1.67;;;1.33;;
5939;SDS011;2995;-31.998;115.906;2022-09-16T10:26:15;4.83;;;1.40;;
5939;SDS011;2995;-31.998;115.906;2022-09-16T10:28:55;3.03;;;1.30;;
5939;SDS011;2995;-31.998;115.906;2022-09-16T10:31:28;1.87;;;1.00;;
5939;SDS011;2995;-31.998;115.906;2022-09-16T10:34:04;5.10;;;2.40;;
5939;SDS011;2995;-31.998;115.906;2022-09-16T10:36:56;2.83;;;1.83;;
5939;SDS011;2995;-31.998;115.906;2022-09-16T10:39:29;7.13;;;2.17;;
5939;SDS011;2995;-31.998;115.906;2022-09-16T10:42:01;3.53;;;1.60;;
5939;SDS011;2995;-31.998;115.906;2022-09-16T10:44:35;3.77;;;1.93;;
5939;SDS011;2995;-31.998;115.906;2022-09-16T10:47:13;6.67;;;2.90;;
5939;SDS011;2995;-31.998;115.906;2022-09-16T10:49:48;5.50;;;3.20;;
5939;SDS011;2995;-31.998;115.906;2022-09-16T10:52:23;7.30;;;3.27;;
5939;SDS011;2995;-31.998;115.906;2022-09-16T10:54:56;13.57;;;4.93;;
5939;SDS011;2995;-31.998;115.906;2022-09-16T10:57:38;4.30;;;2.20;;
5939;SDS011;2995;-31.998;115.906;2022-09-16T11:00:11;7.93;;;4.57;;
5939;SDS011;2995;-31.998;115.906;2022-09-16T11:05:49;5.73;;;4.10;;
5939;SDS011;2995;-31.998;115.906;2022-09-16T11:08:33;5.40;;;3.47;;
5939;SDS011;2995;-31.998;115.906;2022-09-16T11:11:16;7.07;;;3.97;;
5939;SDS011;2995;-31.998;115.906;2022-09-16T11:13:54;5.03;;;4.50;;
5939;SDS011;2995;-31.998;115.906;2022-09-16T11:16:37;6.83;;;5.60;;
5939;SDS011;2995;-31.998;115.906;2022-09-16T11:19:26;7.20;;;5.17;;
5939;SDS011;2995;-31.998;115.906;2022-09-16T11:22:07;8.93;;;4.20;;
5939;SDS011;2995;-31.998;115.906;2022-09-16T11:24:54;6.73;;;3.50;;
5939;SDS011;2995;-31.998;115.906;2022-09-16T11:27:55;12.07;;;5.53;;
5939;SDS011;2995;-31.998;115.906;2022-09-16T11:30:51;7.40;;;5.07;;
5939;SDS011;2995;-31.998;115.906;2022-09-16T11:33:27;9.33;;;5.10;;
5939;SDS011;2995;-31.998;115.906;2022-09-16T11:36:19;8.47;;;4.40;;
5939;SDS011;2995;-31.998;115.906;2022-09-16T11:39:10;12.23;;;6.50;;
5939;SDS011;2995;-31.998;115.906;2022-09-16T11:41:53;14.47;;;7.57;;
5939;SDS011;2995;-31.998;115.906;2022-09-16T11:44:34;57.67;;;37.20;;
5939;SDS011;2995;-31.998;115.906;2022-09-16T11:53:16;6.23;;;3.93;;
5939;SDS011;2995;-31.998;115.906;2022-09-16T11:55:55;4.13;;;3.80;;
5939;SDS011;2995;-31.998;115.906;2022-09-16T11:58:34;4.30;;;3.90;;
5939;SDS011;2995;-31.998;115.906;2022-09-16T12:01:12;2.80;;;2.13;;
5939;SDS011;2995;-31.998;115.906;2022-09-16T12:03:51;2.90;;;2.27;;
5939;SDS011;2995;-31.998;115.906;2022-09-16T12:06:27;3.60;;;3.30;;
5939;SDS011;2995;-31.998;115.906;2022-09-16T12:09:08;5.50;;;2.80;;
5939;SDS011;2995;-31.998;115.906;2022-09-16T12:11:46;8.87;;;6.67;;
5939;SDS011;2995;-31.998;115.906;2022-09-16T12:14:22;14.63;;;11.17;;
5939;SDS011;2995;-31.998;115.906;2022-09-16T12:16:58;16.50;;;11.83;;
5939;SDS011;2995;-31.998;115.906;2022-09-16T12:19:33;17.40;;;13.47;;
5939;SDS011;2995;-31.998;115.906;2022-09-16T12:22:09;12.50;;;11.33;;
5939;SDS011;2995;-31.998;115.906;2022-09-16T12:24:46;9.67;;;8.63;;
5939;SDS011;2995;-31.998;115.906;2022-09-16T12:27:30;11.20;;;7.00;;
5939;SDS011;2995;-31.998;115.906;2022-09-16T12:30:13;8.43;;;6.93;;
5939;SDS011;2995;-31.998;115.906;2022-09-16T12:32:55;10.20;;;5.93;;
5939;SDS011;2995;-31.998;115.906;2022-09-16T12:35:32;6.60;;;3.80;;
5939;SDS011;2995;-31.998;115.906;2022-09-16T12:38:08;5.70;;;2.93;;
5939;SDS011;2995;-31.998;115.906;2022-09-16T12:40:49;4.20;;;3.17;;
5939;SDS011;2995;-31.998;115.906;2022-09-16T12:46:46;7.67;;;4.37;;
5939;SDS011;2995;-31.998;115.906;2022-09-16T12:52:38;5.23;;;3.33;;
5939;SDS011;2995;-31.998;115.906;2022-09-16T12:58:23;6.40;;;3.27;;
5939;SDS011;2995;-31.998;115.906;2022-09-16T13:01:11;6.83;;;5.83;;
5939;SDS011;2995;-31.998;115.906;2022-09-16T13:03:51;9.43;;;6.17;;
5939;SDS011;2995;-31.998;115.906;2022-09-16T13:06:25;7.00;;;4.20;;
5939;SDS011;2995;-31.998;115.906;2022-09-16T13:09:08;7.63;;;3.27;;
5939;SDS011;2995;-31.998;115.906;2022-09-16T13:11:51;9.20;;;3.33;;
5939;SDS011;2995;-31.998;115.906;2022-09-16T13:14:25;4.80;;;3.30;;
5939;SDS011;2995;-31.998;115.906;2022-09-16T13:16:58;4.23;;;3.00;;
5939;SDS011;2995;-31.998;115.906;2022-09-16T13:19:40;5.33;;;3.03;;
5939;SDS011;2995;-31.998;115.906;2022-09-16T13:22:22;7.53;;;3.00;;
5939;SDS011;2995;-31.998;115.906;2022-09-16T13:24:59;4.13;;;2.87;;
5939;SDS011;2995;-31.998;115.906;2022-09-16T13:27:38;11.30;;;5.60;;
5939;SDS011;2995;-31.998;115.906;2022-09-16T13:30:28;8.47;;;5.10;;
5939;SDS011;2995;-31.998;115.906;2022-09-16T13:36:09;11.70;;;7.57;;
5939;SDS011;2995;-31.998;115.906;2022-09-16T13:38:44;11.10;;;8.17;;
5939;SDS011;2995;-31.998;115.906;2022-09-16T13:41:28;11.03;;;7.90;;
5939;SDS011;2995;-31.998;115.906;2022-09-16T13:44:01;6.47;;;4.87;;
5939;SDS011;2995;-31.998;115.906;2022-09-16T13:46:53;5.30;;;3.03;;
5939;SDS011;2995;-31.998;115.906;2022-09-16T13:49:34;26.67;;;17.70;;
5939;SDS011;2995;-31.998;115.906;2022-09-16T13:52:11;133.97;;;102.73;;
5939;SDS011;2995;-31.998;115.906;2022-09-16T13:54:48;79.97;;;63.60;;
5939;SDS011;2995;-31.998;115.906;2022-09-16T13:57:37;45.10;;;37.90;;
5939;SDS011;2995;-31.998;115.906;2022-09-16T14:00:18;22.20;;;16.43;;
5939;SDS011;2995;-31.998;115.906;2022-09-16T14:06:09;12.93;;;9.03;;
5939;SDS011;2995;-31.998;115.906;2022-09-16T14:09:00;14.30;;;9.70;;
5939;SDS011;2995;-31.998;115.906;2022-09-16T14:11:40;16.50;;;10.80;;
5939;SDS011;2995;-31.998;115.906;2022-09-16T14:14:18;15.83;;;10.23;;
5939;SDS011;2995;-31.998;115.906;2022-09-16T14:16:51;14.30;;;10.00;;
5939;SDS011;2995;-31.998;115.906;2022-09-16T14:19:24;10.93;;;9.50;;
5939;SDS011;2995;-31.998;115.906;2022-09-16T14:22:01;14.70;;;9.23;;
5939;SDS011;2995;-31.998;115.906;2022-09-16T14:24:36;15.40;;;9.40;;
5939;SDS011;2995;-31.998;115.906;2022-09-16T14:27:17;14.03;;;10.73;;
5939;SDS011;2995;-31.998;115.906;2022-09-16T14:29:56;12.30;;;9.77;;
5939;SDS011;2995;-31.998;115.906;2022-09-16T14:32:29;11.03;;;9.00;;
5939;SDS011;2995;-31.998;115.906;2022-09-16T14:35:01;13.03;;;9.47;;
5939;SDS011;2995;-31.998;115.906;2022-09-16T14:37:39;11.50;;;8.30;;
5939;SDS011;2995;-31.998;115.906;2022-09-16T14:40:15;10.67;;;9.60;;
5939;SDS011;2995;-31.998;115.906;2022-09-16T14:42:49;17.30;;;15.13;;
5939;SDS011;2995;-31.998;115.906;2022-09-16T14:45:24;17.57;;;12.90;;
5939;SDS011;2995;-31.998;115.906;2022-09-16T14:48:00;13.07;;;11.80;;
5939;SDS011;2995;-31.998;115.906;2022-09-16T14:50:36;16.40;;;14.73;;
5939;SDS011;2995;-31.998;115.906;2022-09-16T14:53:23;18.17;;;14.70;;
5939;SDS011;2995;-31.998;115.906;2022-09-16T14:55:58;14.03;;;11.47;;
5939;SDS011;2995;-31.998;115.906;2022-09-16T14:58:30;13.33;;;9.60;;
5939;SDS011;2995;-31.998;115.906;2022-09-16T15:01:02;12.67;;;11.03;;
5939;SDS011;2995;-31.998;115.906;2022-09-16T15:03:40;12.93;;;11.33;;
5939;SDS011;2995;-31.998;115.906;2022-09-16T15:06:15;15.07;;;11.60;;
5939;SDS011;2995;-31.998;115.906;2022-09-16T15:08:50;12.60;;;10.23;;
5939;SDS011;2995;-31.998;115.906;2022-09-16T15:11:28;14.03;;;9.63;;
5939;SDS011;2995;-31.998;115.906;2022-09-16T15:14:01;14.00;;;10.30;;
5939;SDS011;2995;-31.998;115.906;2022-09-16T15:16:39;17.03;;;10.53;;
5939;SDS011;2995;-31.998;115.906;2022-09-16T15:19:15;11.27;;;10.03;;
5939;SDS011;2995;-31.998;115.906;2022-09-16T15:21:51;13.60;;;9.30;;
5939;SDS011;2995;-31.998;115.906;2022-09-16T15:24:23;13.73;;;10.07;;
5939;SDS011;2995;-31.998;115.906;2022-09-16T15:26:59;13.00;;;9.17;;
5939;SDS011;2995;-31.998;115.906;2022-09-16T15:29:31;12.17;;;8.23;;
5939;SDS011;2995;-31.998;115.906;2022-09-16T15:35:01;12.90;;;9.40;;
5939;SDS011;2995;-31.998;115.906;2022-09-16T15:37:42;10.73;;;8.80;;
5939;SDS011;2995;-31.998;115.906;2022-09-16T15:40:21;14.03;;;10.70;;
5939;SDS011;2995;-31.998;115.906;2022-09-16T15:43:12;20.10;;;13.90;;
5939;SDS011;2995;-31.998;115.906;2022-09-16T15:45:55;16.87;;;13.50;;
5939;SDS011;2995;-31.998;115.906;2022-09-16T15:48:29;21.83;;;12.90;;
5939;SDS011;2995;-31.998;115.906;2022-09-16T15:51:03;17.53;;;13.70;;
5939;SDS011;2995;-31.998;115.906;2022-09-16T15:53:38;18.60;;;12.93;;
5939;SDS011;2995;-31.998;115.906;2022-09-16T15:56:17;13.93;;;12.47;;
5939;SDS011;2995;-31.998;115.906;2022-09-16T15:58:56;15.50;;;9.07;;
5939;SDS011;2995;-31.998;115.906;2022-09-16T16:01:38;15.10;;;11.10;;